createdAt,value
2023-05-12T00:01:05.512Z,13.35
2023-05-12T00:03:33.072Z,13.32
2023-05-12T00:06:04.509Z,13.31
2023-05-12T00:08:32.168Z,13.31
2023-05-12T00:10:59.629Z,13.30
2023-05-12T00:13:27.340Z,13.30
2023-05-12T00:15:56.696Z,13.30
2023-05-12T00:18:24.300Z,13.29
2023-05-12T00:20:54.076Z,13.29
2023-05-12T00:23:23.291Z,13.28
2023-05-12T00:25:51.024Z,13.28
2023-05-12T00:28:18.784Z,13.30
2023-05-12T00:30:46.331Z,13.30
2023-05-12T00:33:14.089Z,13.29
2023-05-12T00:35:41.579Z,13.28
2023-05-12T00:38:09.165Z,13.28
2023-05-12T00:40:37.979Z,13.27
2023-05-12T00:43:05.611Z,13.27
2023-05-12T00:45:33.168Z,13.27
2023-05-12T00:48:00.768Z,13.22
2023-05-12T00:50:28.557Z,13.24
2023-05-12T00:52:56.137Z,13.24
2023-05-12T00:55:23.615Z,13.23
2023-05-12T00:57:52.507Z,13.22
2023-05-12T01:00:20.439Z,13.23
2023-05-12T01:02:48.222Z,13.23
2023-05-12T01:05:15.739Z,13.22
2023-05-12T01:07:43.325Z,13.21
2023-05-12T01:10:28.792Z,13.20
2023-05-12T01:12:57.773Z,13.21
2023-05-12T01:15:25.349Z,13.23
2023-05-12T01:17:54.179Z,13.22
2023-05-12T01:20:22.170Z,13.23
2023-05-12T01:22:49.788Z,13.23
2023-05-12T01:25:17.348Z,13.24
2023-05-12T01:27:46.241Z,13.24
2023-05-12T01:30:16.346Z,13.25
2023-05-12T01:32:43.889Z,13.26
2023-05-12T01:35:11.470Z,13.26
2023-05-12T01:37:39.022Z,13.25
2023-05-12T01:40:07.339Z,13.24
2023-05-12T01:42:34.825Z,13.23
2023-05-12T01:45:03.827Z,13.22
2023-05-12T01:47:31.857Z,13.24
2023-05-12T01:49:59.513Z,13.22
2023-05-12T01:52:28.112Z,13.23
2023-05-12T01:54:55.522Z,13.24
2023-05-12T01:57:23.193Z,13.24
2023-05-12T01:59:50.707Z,13.25
2023-05-12T02:02:19.660Z,13.23
2023-05-12T02:04:47.407Z,13.23
2023-05-12T02:07:15.658Z,13.25
2023-05-12T02:09:43.218Z,13.24
2023-05-12T02:12:10.685Z,13.24
2023-05-12T02:14:38.272Z,13.25
2023-05-12T02:17:05.988Z,13.25
2023-05-12T02:19:34.852Z,13.26
2023-05-12T02:22:02.304Z,13.27
2023-05-12T02:24:29.784Z,13.26
2023-05-12T02:26:57.361Z,13.28
2023-05-12T02:29:24.824Z,13.27
2023-05-12T02:31:52.471Z,13.26
2023-05-12T02:34:20.023Z,13.26
2023-05-12T02:36:48.915Z,13.27
2023-05-12T02:39:16.529Z,13.26
2023-05-12T02:41:44.024Z,13.28
2023-05-12T02:44:11.636Z,13.28
2023-05-12T02:46:39.092Z,13.30
2023-05-12T02:49:06.604Z,13.30
2023-05-12T02:51:34.080Z,13.30
2023-05-12T02:54:03.018Z,13.32
2023-05-12T02:56:33.221Z,13.31
2023-05-12T02:59:01.545Z,13.32
2023-05-12T03:01:29.137Z,13.32
2023-05-12T03:03:56.727Z,13.33
2023-05-12T03:06:24.258Z,13.33
2023-05-12T03:08:51.763Z,13.34
2023-05-12T03:11:20.759Z,13.33
2023-05-12T03:13:48.838Z,13.34
2023-05-12T03:16:19.445Z,13.34
2023-05-12T03:18:47.171Z,13.35
2023-05-12T03:21:14.636Z,13.35
2023-05-12T03:23:42.190Z,13.36
2023-05-12T03:26:09.722Z,13.37
2023-05-12T03:28:38.601Z,13.37
2023-05-12T03:31:06.110Z,13.39
2023-05-12T03:33:33.576Z,13.40
2023-05-12T03:36:01.088Z,13.39
2023-05-12T03:38:28.593Z,13.40
2023-05-12T03:41:04.147Z,13.41
2023-05-12T03:43:31.741Z,13.41
2023-05-12T03:46:00.829Z,13.41
2023-05-12T03:48:28.491Z,13.41
2023-05-12T03:50:56.034Z,13.42
2023-05-12T03:53:23.518Z,13.41
2023-05-12T03:55:51.165Z,13.41
2023-05-12T03:58:18.752Z,13.43
2023-05-12T04:00:46.662Z,13.44
2023-05-12T04:03:15.628Z,13.44
2023-05-12T04:05:43.247Z,13.45
2023-05-12T04:08:10.770Z,13.45
2023-05-12T04:10:39.616Z,13.46
2023-05-12T04:13:08.127Z,13.46
2023-05-12T04:15:35.659Z,13.47
2023-05-12T04:18:03.650Z,13.47
2023-05-12T04:20:32.604Z,13.48
2023-05-12T04:23:00.212Z,13.50
2023-05-12T04:25:27.800Z,13.50
2023-05-12T04:27:55.340Z,13.50
2023-05-12T04:30:23.007Z,13.51
2023-05-12T04:32:50.510Z,13.53
2023-05-12T04:35:17.942Z,13.52
2023-05-12T04:37:46.815Z,13.52
2023-05-12T04:40:14.394Z,13.52
2023-05-12T04:42:41.916Z,13.52
2023-05-12T04:45:10.064Z,13.52
2023-05-12T04:47:37.636Z,13.53
2023-05-12T04:50:05.714Z,13.54
2023-05-12T04:52:33.238Z,13.54
2023-05-12T04:55:02.180Z,13.56
2023-05-12T04:57:29.665Z,13.55
2023-05-12T04:59:59.143Z,13.54
2023-05-12T05:02:26.782Z,13.54
2023-05-12T05:04:54.508Z,13.54
2023-05-12T05:07:22.129Z,13.56
2023-05-12T05:09:49.603Z,13.56
2023-05-12T05:12:18.556Z,13.57
2023-05-12T05:14:46.047Z,13.57
2023-05-12T05:17:13.604Z,13.59
2023-05-12T05:19:55.144Z,13.59
2023-05-12T05:22:26.366Z,13.59
2023-05-12T05:24:53.964Z,13.59
2023-05-12T05:27:22.845Z,13.59
2023-05-12T05:29:50.410Z,13.61
2023-05-12T05:32:18.212Z,13.62
2023-05-12T05:34:45.780Z,13.62
2023-05-12T05:37:13.333Z,13.62
2023-05-12T05:39:40.965Z,13.64
2023-05-12T05:42:08.523Z,13.67
2023-05-12T05:44:37.468Z,13.67
2023-05-12T05:47:05.247Z,13.68
2023-05-12T05:49:33.222Z,13.68
2023-05-12T05:52:00.649Z,13.69
2023-05-12T05:54:28.165Z,13.70
2023-05-12T05:56:55.573Z,13.70
2023-05-12T05:59:23.176Z,13.70
2023-05-12T06:01:52.222Z,13.71
2023-05-12T06:04:19.818Z,13.71
2023-05-12T06:06:47.373Z,13.73
2023-05-12T06:09:15.779Z,13.75
2023-05-12T06:11:43.220Z,13.79
2023-05-12T06:14:11.466Z,13.80
2023-05-12T06:16:39.475Z,13.81
2023-05-12T06:19:08.571Z,13.83
2023-05-12T06:21:36.190Z,13.87
2023-05-12T06:24:04.243Z,13.89
2023-05-12T06:26:31.774Z,13.92
2023-05-12T06:28:59.273Z,13.94
2023-05-12T06:31:27.027Z,13.97
2023-05-12T06:33:54.514Z,14.01
2023-05-12T06:36:23.602Z,14.05
2023-05-12T06:38:52.169Z,14.07
2023-05-12T06:41:19.629Z,14.10
2023-05-12T06:43:47.122Z,14.12
2023-05-12T06:46:14.818Z,14.15
2023-05-12T06:48:42.378Z,14.19
2023-05-12T06:51:09.790Z,14.21
2023-05-12T06:53:50.555Z,15.00
2023-05-12T06:56:18.304Z,15.22
2023-05-12T06:58:46.395Z,15.35
2023-05-12T07:01:14.091Z,15.50
2023-05-12T07:03:41.833Z,15.60
2023-05-12T07:06:11.123Z,15.67
2023-05-12T07:08:38.871Z,15.74
2023-05-12T07:11:07.997Z,15.81
2023-05-12T07:13:35.765Z,15.86
2023-05-12T07:16:03.536Z,15.90
2023-05-12T07:18:32.077Z,15.91
2023-05-12T07:20:59.866Z,15.97
2023-05-12T07:23:27.589Z,16.00
2023-05-12T07:25:55.277Z,16.03
2023-05-12T07:28:24.639Z,16.05
2023-05-12T07:30:52.344Z,16.10
2023-05-12T07:33:20.349Z,16.16
2023-05-12T07:35:48.162Z,16.19
2023-05-12T07:38:15.999Z,16.24
2023-05-12T07:40:44.665Z,16.25
2023-05-12T07:43:12.447Z,16.28
2023-05-12T07:45:41.540Z,16.32
2023-05-12T07:48:09.263Z,16.35
2023-05-12T07:50:37.081Z,16.36
2023-05-12T07:53:05.759Z,16.39
2023-05-12T07:55:34.445Z,16.42
2023-05-12T07:58:02.156Z,16.44
2023-05-12T08:00:29.956Z,16.48
2023-05-12T08:02:59.336Z,16.53
2023-05-12T08:05:27.056Z,16.57
2023-05-12T08:07:54.695Z,16.59
2023-05-12T08:10:25.137Z,16.64
2023-05-12T08:12:52.832Z,16.68
2023-05-12T08:15:20.708Z,16.71
2023-05-12T08:17:48.750Z,16.76
2023-05-12T08:20:17.919Z,16.81
2023-05-12T08:22:47.814Z,16.84
2023-05-12T08:25:15.680Z,16.88
2023-05-12T08:27:43.410Z,16.91
2023-05-12T08:30:12.308Z,16.97
2023-05-12T08:32:40.283Z,17.01
2023-05-12T08:35:08.492Z,17.05
2023-05-12T08:37:37.520Z,17.08
2023-05-12T08:40:11.893Z,17.11
2023-05-12T08:42:45.733Z,17.15
2023-05-12T08:45:13.526Z,17.16
2023-05-12T08:47:43.664Z,17.14
2023-05-12T08:50:12.134Z,17.16
2023-05-12T08:52:41.233Z,17.19
2023-05-12T08:55:10.879Z,17.20
2023-05-12T08:57:39.755Z,17.24
2023-05-12T09:00:09.972Z,17.28
2023-05-12T09:02:52.250Z,17.35
2023-05-12T09:05:22.694Z,17.38
2023-05-12T09:07:53.204Z,17.41
2023-05-12T09:10:34.458Z,17.47
2023-05-12T09:13:04.878Z,17.51
2023-05-12T09:15:37.400Z,17.58
2023-05-12T09:18:05.451Z,17.60
2023-05-12T09:20:33.142Z,17.61
2023-05-12T09:23:13.908Z,17.63
2023-05-12T09:25:41.686Z,17.66
2023-05-12T09:28:09.891Z,17.71
2023-05-12T09:30:38.601Z,17.74
2023-05-12T09:33:07.475Z,17.79
2023-05-12T09:35:40.135Z,17.83
2023-05-12T09:38:10.169Z,17.85
2023-05-12T09:40:38.318Z,17.95
2023-05-12T09:43:07.186Z,17.93
2023-05-12T09:45:37.023Z,17.89
2023-05-12T09:48:11.504Z,17.90
2023-05-12T09:50:48.121Z,17.93
2023-05-12T09:53:19.155Z,17.96
2023-05-12T09:55:48.505Z,17.95
2023-05-12T09:58:17.970Z,17.99
2023-05-12T10:03:18.692Z,18.12
2023-05-12T10:05:50.225Z,18.17
2023-05-12T10:08:22.132Z,18.23
2023-05-12T10:10:52.235Z,18.23
2023-05-12T10:13:20.261Z,18.26
2023-05-12T10:15:49.756Z,18.21
2023-05-12T10:18:18.274Z,18.30
2023-05-12T10:20:46.952Z,18.33
2023-05-12T10:23:14.957Z,18.36
2023-05-12T10:25:45.761Z,18.39
2023-05-12T10:28:13.443Z,18.46
2023-05-12T10:30:41.658Z,18.51
2023-05-12T10:33:11.527Z,18.54
2023-05-12T10:35:40.515Z,18.61
2023-05-12T10:38:08.940Z,18.67
2023-05-12T10:40:36.869Z,18.70
2023-05-12T10:43:06.349Z,18.77
2023-05-12T10:45:37.386Z,18.82
2023-05-12T10:48:09.215Z,18.87
2023-05-12T10:50:37.045Z,18.91
2023-05-12T10:53:05.098Z,18.93
2023-05-12T10:55:34.951Z,18.93
2023-05-12T10:58:08.971Z,18.93
2023-05-12T11:00:45.836Z,18.96
2023-05-12T11:03:17.501Z,18.96
2023-05-12T11:05:47.224Z,19.01
2023-05-12T11:08:17.782Z,19.01
2023-05-12T11:10:46.985Z,19.04
2023-05-12T11:13:17.258Z,19.06
2023-05-12T11:16:52.090Z,19.19
2023-05-12T11:19:19.889Z,19.28
2023-05-12T11:21:47.699Z,19.28
2023-05-12T11:24:16.690Z,19.30
2023-05-12T11:26:44.469Z,19.30
2023-05-12T11:37:05.203Z,19.77
2023-05-12T11:39:32.928Z,19.90
2023-05-12T11:42:12.219Z,19.91
2023-05-12T11:44:47.828Z,19.97
2023-05-12T11:47:16.705Z,19.99
2023-05-12T11:49:56.535Z,19.97
2023-05-12T11:55:48.839Z,20.05
2023-05-12T11:58:20.681Z,20.18
2023-05-12T12:00:48.972Z,20.23
2023-05-12T12:03:17.511Z,20.25
2023-05-12T12:05:46.535Z,20.25
2023-05-12T12:08:15.640Z,20.16
2023-05-12T12:10:46.841Z,20.15
2023-05-12T12:13:20.514Z,20.17
2023-05-12T12:15:48.190Z,20.20
2023-05-12T12:18:16.556Z,20.21
2023-05-12T12:20:44.371Z,20.24
2023-05-12T12:23:11.972Z,20.31
2023-05-12T12:25:39.708Z,20.36
2023-05-12T12:28:09.048Z,20.35
2023-05-12T12:30:37.477Z,20.35
2023-05-12T12:33:05.249Z,20.37
2023-05-12T12:35:32.996Z,20.42
2023-05-12T12:38:00.770Z,20.44
2023-05-12T12:40:28.467Z,20.45
2023-05-12T12:42:56.198Z,20.46
2023-05-12T12:45:25.828Z,20.59
2023-05-12T12:47:54.865Z,20.66
2023-05-12T12:50:24.473Z,20.69
2023-05-12T12:52:53.619Z,20.72
2023-05-12T12:55:21.905Z,20.76
2023-05-12T12:57:49.837Z,20.86
2023-05-12T13:00:18.472Z,20.93
2023-05-12T13:02:47.820Z,21.01
2023-05-12T13:05:16.316Z,21.12
2023-05-12T13:07:44.147Z,21.15
2023-05-12T13:10:12.904Z,21.18
2023-05-12T13:12:41.028Z,21.12
2023-05-12T13:15:10.395Z,21.17
2023-05-12T13:17:38.142Z,20.82
2023-05-12T13:20:09.112Z,20.75
2023-05-12T13:22:36.854Z,20.73
2023-05-12T13:25:07.536Z,20.84
2023-05-12T13:27:35.543Z,20.87
2023-05-12T13:30:04.523Z,20.82
2023-05-12T13:32:34.726Z,20.68
2023-05-12T13:35:02.483Z,20.57
2023-05-12T13:37:31.654Z,20.41
2023-05-12T13:39:59.979Z,20.28
2023-05-12T13:42:27.771Z,20.19
2023-05-12T13:44:55.468Z,20.15
2023-05-12T13:47:23.394Z,20.10
2023-05-12T13:49:51.219Z,20.07
2023-05-12T13:52:18.947Z,20.01
2023-05-12T13:54:48.457Z,20.02
2023-05-12T13:57:16.248Z,19.99
2023-05-12T13:59:43.942Z,19.97
2023-05-12T14:02:13.824Z,19.97
2023-05-12T14:04:41.465Z,19.80
2023-05-12T14:07:09.420Z,19.70
2023-05-12T14:09:37.034Z,19.70
2023-05-12T14:12:06.504Z,19.74
2023-05-12T14:14:34.203Z,19.76
2023-05-12T14:17:01.819Z,19.78
2023-05-12T14:19:29.454Z,19.78
2023-05-12T14:21:56.975Z,19.79
2023-05-12T14:24:24.601Z,19.80
2023-05-12T14:26:52.576Z,19.82
2023-05-12T14:29:21.569Z,19.81
2023-05-12T14:31:49.065Z,19.79
2023-05-12T14:34:16.701Z,19.82
2023-05-12T14:36:44.185Z,19.88
2023-05-12T14:39:14.620Z,19.94
2023-05-12T14:41:43.163Z,19.99
2023-05-12T14:44:11.275Z,19.99
2023-05-12T14:46:40.225Z,19.92
2023-05-12T14:49:10.719Z,19.87
2023-05-12T14:51:38.270Z,19.85
2023-05-12T14:54:12.592Z,19.90
2023-05-12T14:56:49.697Z,20.02
2023-05-12T14:59:17.557Z,20.09
2023-05-12T15:01:46.643Z,20.09
2023-05-12T15:04:14.275Z,20.05
2023-05-12T15:06:41.736Z,19.95
2023-05-12T15:09:09.541Z,19.89
2023-05-12T15:11:37.651Z,19.89
2023-05-12T16:30:51.586Z,21.88
2023-05-12T16:33:19.525Z,21.98
2023-05-12T16:35:47.202Z,22.02
2023-05-12T16:38:14.828Z,22.06
2023-05-12T16:40:42.689Z,22.07
2023-05-12T16:43:10.398Z,22.08
2023-05-12T16:45:38.062Z,21.99
2023-05-12T16:48:07.339Z,21.98
2023-05-12T16:50:34.978Z,21.89
2023-05-12T16:53:02.660Z,21.88
2023-05-12T16:55:30.809Z,21.90
2023-05-12T16:57:58.492Z,21.90
2023-05-12T17:00:26.298Z,21.92
2023-05-12T17:04:46.598Z,21.95
2023-05-12T17:07:14.372Z,21.95
2023-05-12T17:09:42.141Z,21.92
2023-05-12T17:12:10.845Z,21.90
2023-05-12T17:14:38.613Z,21.91
2023-05-12T17:17:06.621Z,21.87
2023-05-12T17:19:34.638Z,21.86
2023-05-12T17:22:03.870Z,21.83
2023-05-12T17:24:31.789Z,21.76
2023-05-12T17:26:59.434Z,21.84
2023-05-12T17:29:27.166Z,21.81
2023-05-12T17:34:02.075Z,21.81
2023-05-12T17:36:29.926Z,21.76
2023-05-12T17:38:57.737Z,21.77
2023-05-12T17:41:28.318Z,21.73
2023-05-12T17:43:56.890Z,21.69
2023-05-12T17:46:24.811Z,21.69
2023-05-12T17:48:52.562Z,21.71
2023-05-12T17:51:22.986Z,21.63
2023-05-12T17:53:50.680Z,21.67
2023-05-12T18:00:09.357Z,21.52
2023-05-12T18:02:37.931Z,21.53
2023-05-12T18:05:07.431Z,21.55
2023-05-12T18:07:35.484Z,21.54
2023-05-12T18:10:03.101Z,21.53
2023-05-12T18:13:54.487Z,21.52
2023-05-12T18:16:28.370Z,21.49
2023-05-12T18:18:57.172Z,21.45
